sensor_id;sensor_type;location;lat;lon;timestamp;pressure;altitude;pressure_sealevel;temperature;humidity
13952;BME280;39535;52.192;9.886;2022-09-17T00:01:58;99489.16;;;10.89;100.00
13952;BME280;39535;52.192;9.886;2022-09-17T00:04:24;99494.41;;;10.88;100.00
13952;BME280;39535;52.192;9.886;2022-09-17T00:06:52;99503.34;;;10.82;100.00
13952;BME280;39535;52.192;9.886;2022-09-17T00:09:20;99505.25;;;10.77;100.00
13952;BME280;39535;52.192;9.886;2022-09-17T00:11:46;99512.91;;;10.82;100.00
13952;BME280;39535;52.192;9.886;2022-09-17T00:14:15;99518.25;;;10.79;100.00
13952;BME280;39535;52.192;9.886;2022-09-17T00:16:44;99530.28;;;10.83;100.00
13952;BME280;39535;52.192;9.886;2022-09-17T00:19:12;99530.25;;;10.84;100.00
13952;BME280;39535;52.192;9.886;2022-09-17T00:21:40;99536.38;;;10.83;100.00
13952;BME280;39535;52.192;9.886;2022-09-17T00:24:06;99542.22;;;10.90;100.00
13952;BME280;39535;52.192;9.886;2022-09-17T00:26:34;99540.31;;;10.95;100.00
13952;BME280;39535;52.192;9.886;2022-09-17T00:29:02;99545.31;;;11.01;100.00
13952;BME280;39535;52.192;9.886;2022-09-17T00:31:30;99552.34;;;10.99;100.00
13952;BME280;39535;52.192;9.886;2022-09-17T00:33:57;99549.78;;;10.98;100.00
13952;BME280;39535;52.192;9.886;2022-09-17T00:36:24;99545.25;;;11.03;100.00
13952;BME280;39535;52.192;9.886;2022-09-17T00:38:51;99551.25;;;11.06;100.00
13952;BME280;39535;52.192;9.886;2022-09-17T00:41:18;99557.53;;;11.01;100.00
13952;BME280;39535;52.192;9.886;2022-09-17T00:43:50;99550.75;;;10.95;100.00
13952;BME280;39535;52.192;9.886;2022-09-17T00:46:24;99550.91;;;10.90;100.00
13952;BME280;39535;52.192;9.886;2022-09-17T00:48:54;99555.16;;;10.93;100.00
13952;BME280;39535;52.192;9.886;2022-09-17T00:51:27;99554.22;;;10.96;100.00
13952;BME280;39535;52.192;9.886;2022-09-17T00:53:56;99556.06;;;10.92;100.00
13952;BME280;39535;52.192;9.886;2022-09-17T00:56:25;99554.22;;;10.96;100.00
13952;BME280;39535;52.192;9.886;2022-09-17T00:58:53;99558.63;;;10.93;100.00
13952;BME280;39535;52.192;9.886;2022-09-17T01:01:20;99562.22;;;10.91;100.00
13952;BME280;39535;52.192;9.886;2022-09-17T01:03:47;99563.06;;;10.91;100.00
13952;BME280;39535;52.192;9.886;2022-09-17T01:06:20;99558.69;;;10.92;100.00
13952;BME280;39535;52.192;9.886;2022-09-17T01:09:10;99561.41;;;10.89;100.00
13952;BME280;39535;52.192;9.886;2022-09-17T01:12:05;99562.03;;;10.96;100.00
13952;BME280;39535;52.192;9.886;2022-09-17T01:14:46;99575.63;;;11.05;100.00
13952;BME280;39535;52.192;9.886;2022-09-17T01:17:22;99574.25;;;10.95;100.00
13952;BME280;39535;52.192;9.886;2022-09-17T01:23:14;99568.59;;;10.82;100.00
13952;BME280;39535;52.192;9.886;2022-09-17T01:26:00;99579.09;;;10.81;100.00
13952;BME280;39535;52.192;9.886;2022-09-17T01:28:40;99566.13;;;10.78;100.00
13952;BME280;39535;52.192;9.886;2022-09-17T01:31:18;99568.69;;;10.79;100.00
13952;BME280;39535;52.192;9.886;2022-09-17T01:33:56;99581.66;;;10.82;100.00
13952;BME280;39535;52.192;9.886;2022-09-17T01:36:35;99583.41;;;10.82;100.00
13952;BME280;39535;52.192;9.886;2022-09-17T01:39:11;99585.25;;;10.78;100.00
13952;BME280;39535;52.192;9.886;2022-09-17T01:41:47;99591.66;;;10.69;100.00
13952;BME280;39535;52.192;9.886;2022-09-17T01:44:22;99592.59;;;10.67;100.00
13952;BME280;39535;52.192;9.886;2022-09-17T01:46:55;99607.25;;;10.71;100.00
13952;BME280;39535;52.192;9.886;2022-09-17T01:49:24;99598.47;;;10.73;100.00
13952;BME280;39535;52.192;9.886;2022-09-17T01:51:52;99599.31;;;10.74;100.00
13952;BME280;39535;52.192;9.886;2022-09-17T01:54:23;99605.25;;;10.79;100.00
13952;BME280;39535;52.192;9.886;2022-09-17T01:56:54;99623.56;;;10.78;100.00
13952;BME280;39535;52.192;9.886;2022-09-17T01:59:24;99635.47;;;10.86;100.00
13952;BME280;39535;52.192;9.886;2022-09-17T02:01:58;99644.41;;;10.79;100.00
13952;BME280;39535;52.192;9.886;2022-09-17T02:04:29;99632.31;;;10.77;100.00
13952;BME280;39535;52.192;9.886;2022-09-17T02:07:02;99637.41;;;10.80;100.00
13952;BME280;39535;52.192;9.886;2022-09-17T02:09:33;99644.13;;;10.88;100.00
13952;BME280;39535;52.192;9.886;2022-09-17T02:12:05;99643.44;;;10.82;100.00
13952;BME280;39535;52.192;9.886;2022-09-17T02:14:35;99648.63;;;10.83;100.00
13952;BME280;39535;52.192;9.886;2022-09-17T02:17:09;99633.13;;;10.79;100.00
13952;BME280;39535;52.192;9.886;2022-09-17T02:19:39;99638.34;;;10.79;100.00
13952;BME280;39535;52.192;9.886;2022-09-17T02:22:13;99648.47;;;10.88;100.00
13952;BME280;39535;52.192;9.886;2022-09-17T02:24:44;99671.28;;;10.83;100.00
13952;BME280;39535;52.192;9.886;2022-09-17T02:27:17;99664.31;;;10.82;100.00
13952;BME280;39535;52.192;9.886;2022-09-17T02:29:46;99671.28;;;10.83;100.00
13952;BME280;39535;52.192;9.886;2022-09-17T02:32:13;99676.50;;;10.83;99.95
13952;BME280;39535;52.192;9.886;2022-09-17T02:34:40;99686.00;;;10.84;99.32
13952;BME280;39535;52.192;9.886;2022-09-17T02:37:07;99688.53;;;10.87;99.14
13952;BME280;39535;52.192;9.886;2022-09-17T02:39:34;99701.44;;;10.91;98.59
13952;BME280;39535;52.192;9.886;2022-09-17T02:42:05;99706.22;;;11.05;98.03
13952;BME280;39535;52.192;9.886;2022-09-17T02:44:39;99729.84;;;11.02;97.10
13952;BME280;39535;52.192;9.886;2022-09-17T02:47:22;99733.28;;;11.03;97.02
13952;BME280;39535;52.192;9.886;2022-09-17T02:50:04;99736.94;;;10.97;97.25
13952;BME280;39535;52.192;9.886;2022-09-17T02:52:41;99745.38;;;11.05;96.49
13952;BME280;39535;52.192;9.886;2022-09-17T02:55:16;99771.97;;;11.18;95.29
13952;BME280;39535;52.192;9.886;2022-09-17T02:57:46;99773.91;;;11.11;95.42
13952;BME280;39535;52.192;9.886;2022-09-17T03:00:20;99762.63;;;11.11;95.84
13952;BME280;39535;52.192;9.886;2022-09-17T03:02:50;99763.59;;;11.08;95.45
13952;BME280;39535;52.192;9.886;2022-09-17T03:05:20;99753.97;;;11.09;95.66
13952;BME280;39535;52.192;9.886;2022-09-17T03:07:48;99758.44;;;11.05;95.79
13952;BME280;39535;52.192;9.886;2022-09-17T03:10:15;99746.44;;;11.00;96.03
13952;BME280;39535;52.192;9.886;2022-09-17T03:12:42;99739.53;;;10.99;96.39
13952;BME280;39535;52.192;9.886;2022-09-17T03:15:09;99719.75;;;10.90;97.16
13952;BME280;39535;52.192;9.886;2022-09-17T03:17:35;99710.19;;;10.90;96.38
13952;BME280;39535;52.192;9.886;2022-09-17T03:20:03;99730.97;;;10.93;95.86
13952;BME280;39535;52.192;9.886;2022-09-17T03:22:30;99741.56;;;10.89;95.97
13952;BME280;39535;52.192;9.886;2022-09-17T03:24:57;99748.03;;;10.77;95.82
13952;BME280;39535;52.192;9.886;2022-09-17T03:27:23;99746.19;;;10.81;95.79
13952;BME280;39535;52.192;9.886;2022-09-17T03:29:49;99733.34;;;10.73;96.29
13952;BME280;39535;52.192;9.886;2022-09-17T03:32:16;99741.50;;;10.62;96.00
13952;BME280;39535;52.192;9.886;2022-09-17T03:34:42;99732.06;;;10.58;96.34
13952;BME280;39535;52.192;9.886;2022-09-17T03:37:12;99736.34;;;10.61;96.07
13952;BME280;39535;52.192;9.886;2022-09-17T03:39:38;99743.50;;;10.54;96.11
13952;BME280;39535;52.192;9.886;2022-09-17T03:42:05;99724.59;;;10.46;96.92
13952;BME280;39535;52.192;9.886;2022-09-17T03:44:31;99721.03;;;10.48;97.21
13952;BME280;39535;52.192;9.886;2022-09-17T03:46:58;99712.56;;;10.42;97.17
13952;BME280;39535;52.192;9.886;2022-09-17T03:49:24;99718.63;;;10.42;97.10
13952;BME280;39535;52.192;9.886;2022-09-17T03:51:51;99718.91;;;10.33;97.03
13952;BME280;39535;52.192;9.886;2022-09-17T03:54:18;99732.63;;;10.40;96.70
13952;BME280;39535;52.192;9.886;2022-09-17T03:56:45;99747.47;;;10.38;96.07
13952;BME280;39535;52.192;9.886;2022-09-17T03:59:11;99750.16;;;10.34;96.22
13952;BME280;39535;52.192;9.886;2022-09-17T04:01:38;99748.31;;;10.38;96.51
13952;BME280;39535;52.192;9.886;2022-09-17T04:04:04;99738.06;;;10.32;96.57
13952;BME280;39535;52.192;9.886;2022-09-17T04:06:32;99742.31;;;10.34;96.57
13952;BME280;39535;52.192;9.886;2022-09-17T04:08:58;99743.56;;;10.21;96.92
13952;BME280;39535;52.192;9.886;2022-09-17T04:11:26;99748.63;;;10.26;96.69
13952;BME280;39535;52.192;9.886;2022-09-17T04:13:53;99745.16;;;10.27;96.70
13952;BME280;39535;52.192;9.886;2022-09-17T04:16:19;99743.53;;;10.23;96.83
13952;BME280;39535;52.192;9.886;2022-09-17T04:18:45;99743.28;;;10.32;96.42
13952;BME280;39535;52.192;9.886;2022-09-17T04:21:12;99740.19;;;10.18;97.02
13952;BME280;39535;52.192;9.886;2022-09-17T04:23:38;99739.25;;;10.19;96.86
13952;BME280;39535;52.192;9.886;2022-09-17T04:26:05;99739.41;;;10.14;96.79
13952;BME280;39535;52.192;9.886;2022-09-17T04:28:32;99765.53;;;10.12;95.79
13952;BME280;39535;52.192;9.886;2022-09-17T04:30:59;99789.81;;;10.14;94.86
13952;BME280;39535;52.192;9.886;2022-09-17T04:33:25;99803.59;;;10.20;94.37
13952;BME280;39535;52.192;9.886;2022-09-17T04:35:52;99821.66;;;10.26;93.89
13952;BME280;39535;52.192;9.886;2022-09-17T04:38:19;99832.94;;;10.26;93.87
13952;BME280;39535;52.192;9.886;2022-09-17T04:40:46;99824.09;;;10.33;93.71
13952;BME280;39535;52.192;9.886;2022-09-17T04:43:14;99812.06;;;10.28;94.36
13952;BME280;39535;52.192;9.886;2022-09-17T04:45:44;99806.94;;;10.25;94.35
13952;BME280;39535;52.192;9.886;2022-09-17T04:48:10;99809.63;;;10.22;94.43
13952;BME280;39535;52.192;9.886;2022-09-17T04:50:37;99809.59;;;10.23;94.88
13952;BME280;39535;52.192;9.886;2022-09-17T04:53:03;99796.56;;;10.22;95.29
13952;BME280;39535;52.192;9.886;2022-09-17T04:55:30;99792.31;;;10.19;95.70
13952;BME280;39535;52.192;9.886;2022-09-17T04:57:56;99783.69;;;10.17;95.69
13952;BME280;39535;52.192;9.886;2022-09-17T05:00:23;99761.13;;;10.14;96.13
13952;BME280;39535;52.192;9.886;2022-09-17T05:02:52;99774.88;;;10.21;95.30
13952;BME280;39535;52.192;9.886;2022-09-17T05:05:19;99781.69;;;10.25;95.94
13952;BME280;39535;52.192;9.886;2022-09-17T05:07:46;99789.34;;;10.33;95.40
13952;BME280;39535;52.192;9.886;2022-09-17T05:10:15;99813.59;;;10.37;94.52
13952;BME280;39535;52.192;9.886;2022-09-17T05:12:46;99821.34;;;10.38;94.77
13952;BME280;39535;52.192;9.886;2022-09-17T05:15:13;99816.13;;;10.38;95.17
13952;BME280;39535;52.192;9.886;2022-09-17T05:17:39;99823.75;;;10.46;94.73
13952;BME280;39535;52.192;9.886;2022-09-17T05:20:08;99821.44;;;10.37;94.94
13952;BME280;39535;52.192;9.886;2022-09-17T05:22:39;99833.72;;;10.31;94.39
13952;BME280;39535;52.192;9.886;2022-09-17T05:25:06;99849.22;;;10.38;93.49
13952;BME280;39535;52.192;9.886;2022-09-17T05:27:33;99864.13;;;10.32;93.81
13952;BME280;39535;52.192;9.886;2022-09-17T05:29:59;99830.16;;;10.34;95.18
13952;BME280;39535;52.192;9.886;2022-09-17T05:32:26;99839.88;;;10.29;94.31
13952;BME280;39535;52.192;9.886;2022-09-17T05:34:52;99827.66;;;10.31;94.92
13952;BME280;39535;52.192;9.886;2022-09-17T05:37:20;99826.03;;;10.25;94.86
13952;BME280;39535;52.192;9.886;2022-09-17T05:39:47;99844.31;;;10.25;94.39
13952;BME280;39535;52.192;9.886;2022-09-17T05:42:13;99826.78;;;10.30;94.62
13952;BME280;39535;52.192;9.886;2022-09-17T05:44:39;99854.44;;;10.38;93.87
13952;BME280;39535;52.192;9.886;2022-09-17T05:47:06;99875.25;;;10.39;93.12
13952;BME280;39535;52.192;9.886;2022-09-17T05:49:32;99901.31;;;10.41;92.37
13952;BME280;39535;52.192;9.886;2022-09-17T05:51:58;99906.44;;;10.44;92.62
13952;BME280;39535;52.192;9.886;2022-09-17T05:54:26;99943.09;;;10.39;90.98
13952;BME280;39535;52.192;9.886;2022-09-17T05:56:53;99929.03;;;10.45;91.53
13952;BME280;39535;52.192;9.886;2022-09-17T05:59:19;99942.75;;;10.51;91.15
13952;BME280;39535;52.192;9.886;2022-09-17T06:01:46;99942.91;;;10.47;91.20
13952;BME280;39535;52.192;9.886;2022-09-17T06:04:13;99963.81;;;10.45;90.60
13952;BME280;39535;52.192;9.886;2022-09-17T06:06:42;99956.13;;;10.41;90.28
13952;BME280;39535;52.192;9.886;2022-09-17T06:09:08;99966.38;;;10.47;90.17
13952;BME280;39535;52.192;9.886;2022-09-17T06:11:36;99968.25;;;10.42;90.57
13952;BME280;39535;52.192;9.886;2022-09-17T06:14:03;99965.38;;;10.52;90.17
13952;BME280;39535;52.192;9.886;2022-09-17T06:16:29;99970.00;;;10.41;90.20
13952;BME280;39535;52.192;9.886;2022-09-17T06:18:56;99960.38;;;10.43;90.48
13952;BME280;39535;52.192;9.886;2022-09-17T06:21:22;99964.91;;;10.37;89.83
13952;BME280;39535;52.192;9.886;2022-09-17T06:23:49;99993.69;;;10.33;89.92
13952;BME280;39535;52.192;9.886;2022-09-17T06:26:16;99992.88;;;10.30;90.32
13952;BME280;39535;52.192;9.886;2022-09-17T06:28:44;99990.28;;;10.30;90.07
13952;BME280;39535;52.192;9.886;2022-09-17T06:31:11;100005.78;;;10.36;89.56
13952;BME280;39535;52.192;9.886;2022-09-17T06:33:38;100009.88;;;10.46;89.35
13952;BME280;39535;52.192;9.886;2022-09-17T06:36:07;100029.19;;;10.39;88.95
13952;BME280;39535;52.192;9.886;2022-09-17T06:38:35;100015.91;;;10.48;89.17
13952;BME280;39535;52.192;9.886;2022-09-17T06:41:02;100032.66;;;10.40;88.55
13952;BME280;39535;52.192;9.886;2022-09-17T06:43:29;100049.09;;;10.43;87.82
13952;BME280;39535;52.192;9.886;2022-09-17T06:45:58;100046.34;;;10.49;88.44
13952;BME280;39535;52.192;9.886;2022-09-17T06:48:26;100063.94;;;10.41;87.84
13952;BME280;39535;52.192;9.886;2022-09-17T06:50:53;100054.97;;;10.51;88.04
13952;BME280;39535;52.192;9.886;2022-09-17T06:53:20;100050.59;;;10.52;87.96
13952;BME280;39535;52.192;9.886;2022-09-17T06:55:46;100073.75;;;10.66;87.55
13952;BME280;39535;52.192;9.886;2022-09-17T06:58:13;100089.06;;;10.80;86.55
13952;BME280;39535;52.192;9.886;2022-09-17T07:00:39;100123.94;;;10.77;85.66
13952;BME280;39535;52.192;9.886;2022-09-17T07:03:07;100124.84;;;10.76;85.82
13952;BME280;39535;52.192;9.886;2022-09-17T07:05:34;100108.00;;;10.88;86.27
13952;BME280;39535;52.192;9.886;2022-09-17T07:08:01;100128.72;;;10.94;85.05
13952;BME280;39535;52.192;9.886;2022-09-17T07:10:29;100134.94;;;10.90;85.69
13952;BME280;39535;52.192;9.886;2022-09-17T07:12:56;100107.72;;;11.00;85.88
13952;BME280;39535;52.192;9.886;2022-09-17T07:15:23;100092.78;;;11.04;86.01
13952;BME280;39535;52.192;9.886;2022-09-17T07:17:50;100109.53;;;10.97;85.71
13952;BME280;39535;52.192;9.886;2022-09-17T07:20:17;100114.13;;;10.87;85.53
13952;BME280;39535;52.192;9.886;2022-09-17T07:22:44;100103.59;;;10.90;86.50
13952;BME280;39535;52.192;9.886;2022-09-17T07:25:11;100079.66;;;11.07;86.77
13952;BME280;39535;52.192;9.886;2022-09-17T07:27:37;100085.50;;;11.17;86.15
13952;BME280;39535;52.192;9.886;2022-09-17T07:30:04;100073.16;;;11.22;87.09
13952;BME280;39535;52.192;9.886;2022-09-17T07:32:31;100050.53;;;11.22;86.94
13952;BME280;39535;52.192;9.886;2022-09-17T07:34:57;100071.94;;;11.33;85.55
13952;BME280;39535;52.192;9.886;2022-09-17T07:37:25;100104.56;;;11.20;84.90
13952;BME280;39535;52.192;9.886;2022-09-17T07:39:52;100119.38;;;11.20;84.86
13952;BME280;39535;52.192;9.886;2022-09-17T07:42:18;100113.09;;;11.27;84.98
13952;BME280;39535;52.192;9.886;2022-09-17T07:44:44;100117.50;;;11.25;85.50
13952;BME280;39535;52.192;9.886;2022-09-17T07:47:11;100098.91;;;11.36;85.56
13952;BME280;39535;52.192;9.886;2022-09-17T07:49:38;100119.69;;;11.40;84.77
13952;BME280;39535;52.192;9.886;2022-09-17T07:52:04;100148.44;;;11.40;82.91
13952;BME280;39535;52.192;9.886;2022-09-17T07:54:32;100238.94;;;11.44;80.19
13952;BME280;39535;52.192;9.886;2022-09-17T07:57:01;100251.63;;;11.60;80.47
13952;BME280;39535;52.192;9.886;2022-09-17T07:59:27;100327.59;;;11.53;78.02
13952;BME280;39535;52.192;9.886;2022-09-17T08:01:54;100291.59;;;11.63;80.28
13952;BME280;39535;52.192;9.886;2022-09-17T08:04:20;100266.03;;;11.75;80.24
13952;BME280;39535;52.192;9.886;2022-09-17T08:06:47;100266.06;;;11.73;80.69
13952;BME280;39535;52.192;9.886;2022-09-17T08:09:14;100269.38;;;11.80;80.27
13952;BME280;39535;52.192;9.886;2022-09-17T08:11:42;100291.09;;;11.83;78.74
13952;BME280;39535;52.192;9.886;2022-09-17T08:14:10;100295.09;;;11.97;78.66
13952;BME280;39535;52.192;9.886;2022-09-17T08:16:37;100321.97;;;12.03;77.76
13952;BME280;39535;52.192;9.886;2022-09-17T08:19:04;100342.66;;;12.12;77.55
13952;BME280;39535;52.192;9.886;2022-09-17T08:21:30;100407.53;;;12.00;75.15
13952;BME280;39535;52.192;9.886;2022-09-17T08:23:57;100422.91;;;12.12;75.67
13952;BME280;39535;52.192;9.886;2022-09-17T08:26:24;100409.66;;;12.18;74.50
13952;BME280;39535;52.192;9.886;2022-09-17T08:28:53;100448.09;;;12.16;74.73
13952;BME280;39535;52.192;9.886;2022-09-17T08:31:21;100430.28;;;12.30;75.43
13952;BME280;39535;52.192;9.886;2022-09-17T08:33:49;100436.91;;;12.44;75.17
13952;BME280;39535;52.192;9.886;2022-09-17T08:36:17;100478.72;;;12.47;72.38
13952;BME280;39535;52.192;9.886;2022-09-17T08:38:44;100521.63;;;12.41;71.38
13952;BME280;39535;52.192;9.886;2022-09-17T08:41:19;100568.78;;;12.40;71.19
13952;BME280;39535;52.192;9.886;2022-09-17T08:43:54;100526.88;;;12.41;72.30
13952;BME280;39535;52.192;9.886;2022-09-17T08:46:24;100528.00;;;12.31;72.65
13952;BME280;39535;52.192;9.886;2022-09-17T08:48:55;100491.81;;;12.47;72.10
13952;BME280;39535;52.192;9.886;2022-09-17T08:51:31;100498.56;;;12.56;72.12
13952;BME280;39535;52.192;9.886;2022-09-17T08:54:08;100520.19;;;12.29;71.87
13952;BME280;39535;52.192;9.886;2022-09-17T08:56:40;100489.78;;;12.24;73.02
13952;BME280;39535;52.192;9.886;2022-09-17T08:59:17;100463.38;;;12.33;72.77
13952;BME280;39535;52.192;9.886;2022-09-17T09:01:54;100485.41;;;12.59;72.71
13952;BME280;39535;52.192;9.886;2022-09-17T09:04:54;100507.13;;;12.62;70.08
13952;BME280;39535;52.192;9.886;2022-09-17T09:07:26;100529.47;;;12.76;69.21
13952;BME280;39535;52.192;9.886;2022-09-17T09:10:04;100551.41;;;12.71;68.01
13952;BME280;39535;52.192;9.886;2022-09-17T09:12:34;100599.56;;;12.66;69.19
13952;BME280;39535;52.192;9.886;2022-09-17T09:15:07;100622.28;;;12.65;68.37
13952;BME280;39535;52.192;9.886;2022-09-17T09:17:43;100622.97;;;12.72;67.73
13952;BME280;39535;52.192;9.886;2022-09-17T09:20:15;100615.38;;;12.63;68.61
13952;BME280;39535;52.192;9.886;2022-09-17T09:22:48;100551.47;;;12.68;70.62
13952;BME280;39535;52.192;9.886;2022-09-17T09:25:21;100550.19;;;12.50;67.92
13952;BME280;39535;52.192;9.886;2022-09-17T09:28:15;100585.69;;;12.62;68.72
13952;BME280;39535;52.192;9.886;2022-09-17T09:30:55;100612.91;;;12.57;67.38
13952;BME280;39535;52.192;9.886;2022-09-17T09:33:26;100591.16;;;12.53;68.52
13952;BME280;39535;52.192;9.886;2022-09-17T09:35:55;100588.84;;;12.75;66.87
13952;BME280;39535;52.192;9.886;2022-09-17T09:38:30;100627.00;;;12.85;66.86
13952;BME280;39535;52.192;9.886;2022-09-17T09:41:06;100621.59;;;12.93;67.58
13952;BME280;39535;52.192;9.886;2022-09-17T09:43:39;100570.50;;;13.08;68.19
13952;BME280;39535;52.192;9.886;2022-09-17T09:46:20;100647.50;;;13.04;65.44
13952;BME280;39535;52.192;9.886;2022-09-17T09:49:01;100654.47;;;13.05;64.89
13952;BME280;39535;52.192;9.886;2022-09-17T09:51:37;100697.66;;;13.24;63.10
13952;BME280;39535;52.192;9.886;2022-09-17T09:54:19;100752.25;;;13.44;60.86
13952;BME280;39535;52.192;9.886;2022-09-17T09:56:54;100804.31;;;13.22;60.25
13952;BME280;39535;52.192;9.886;2022-09-17T09:59:22;100804.50;;;13.15;61.59
13952;BME280;39535;52.192;9.886;2022-09-17T10:01:50;100802.41;;;13.29;61.51
13952;BME280;39535;52.192;9.886;2022-09-17T10:04:19;100808.75;;;13.20;60.17
13952;BME280;39535;52.192;9.886;2022-09-17T10:06:48;100840.28;;;13.16;61.32
13952;BME280;39535;52.192;9.886;2022-09-17T10:09:16;100786.16;;;13.15;62.86
13952;BME280;39535;52.192;9.886;2022-09-17T10:11:58;100786.03;;;13.19;61.47
13952;BME280;39535;52.192;9.886;2022-09-17T10:14:26;100759.25;;;13.44;62.31
13952;BME280;39535;52.192;9.886;2022-09-17T10:17:13;100779.72;;;13.64;60.12
13952;BME280;39535;52.192;9.886;2022-09-17T10:19:40;100886.31;;;13.29;54.66
13952;BME280;39535;52.192;9.886;2022-09-17T10:22:23;101021.59;;;13.38;55.56
13952;BME280;39535;52.192;9.886;2022-09-17T10:24:52;100974.50;;;13.74;56.54
13952;BME280;39535;52.192;9.886;2022-09-17T10:27:20;101000.78;;;13.70;55.68
13952;BME280;39535;52.192;9.886;2022-09-17T10:29:49;100996.97;;;13.45;56.34
13952;BME280;39535;52.192;9.886;2022-09-17T10:32:19;101011.63;;;13.54;54.68
13952;BME280;39535;52.192;9.886;2022-09-17T10:34:57;101008.81;;;13.63;54.42
13952;BME280;39535;52.192;9.886;2022-09-17T10:37:40;101067.41;;;13.63;53.61
13952;BME280;39535;52.192;9.886;2022-09-17T10:40:25;101034.09;;;13.67;54.16
13952;BME280;39535;52.192;9.886;2022-09-17T10:43:17;101028.13;;;13.60;55.35
13952;BME280;39535;52.192;9.886;2022-09-17T10:45:45;101007.28;;;13.54;55.90
13952;BME280;39535;52.192;9.886;2022-09-17T10:48:22;100942.91;;;13.77;55.56
13952;BME280;39535;52.192;9.886;2022-09-17T10:50:49;100922.97;;;14.05;56.69
13952;BME280;39535;52.192;9.886;2022-09-17T10:53:19;100887.03;;;14.07;54.12
13952;BME280;39535;52.192;9.886;2022-09-17T10:55:51;100916.19;;;13.97;54.22
13952;BME280;39535;52.192;9.886;2022-09-17T10:58:31;100941.31;;;13.69;55.42
13952;BME280;39535;52.192;9.886;2022-09-17T11:01:06;100902.59;;;13.81;56.59
13952;BME280;39535;52.192;9.886;2022-09-17T11:04:03;100858.94;;;13.77;56.45
13952;BME280;39535;52.192;9.886;2022-09-17T11:09:40;100928.31;;;13.65;50.64
13952;BME280;39535;52.192;9.886;2022-09-17T11:12:24;100998.88;;;14.13;51.95
13952;BME280;39535;52.192;9.886;2022-09-17T11:14:59;101046.38;;;14.40;50.33
13952;BME280;39535;52.192;9.886;2022-09-17T11:17:49;101074.66;;;14.28;50.16
13952;BME280;39535;52.192;9.886;2022-09-17T11:20:31;101037.59;;;14.41;51.70
13952;BME280;39535;52.192;9.886;2022-09-17T11:23:09;101005.97;;;14.45;51.98
13952;BME280;39535;52.192;9.886;2022-09-17T11:25:50;100976.91;;;14.84;52.38
13952;BME280;39535;52.192;9.886;2022-09-17T11:28:29;100956.59;;;14.91;52.04
13952;BME280;39535;52.192;9.886;2022-09-17T11:31:10;100961.53;;;14.70;52.41
13952;BME280;39535;52.192;9.886;2022-09-17T11:33:50;100941.22;;;14.43;51.28
13952;BME280;39535;52.192;9.886;2022-09-17T11:36:22;100969.06;;;14.50;50.71
13952;BME280;39535;52.192;9.886;2022-09-17T11:38:52;100966.94;;;14.64;50.48
13952;BME280;39535;52.192;9.886;2022-09-17T11:41:24;100979.41;;;14.58;50.36
13952;BME280;39535;52.192;9.886;2022-09-17T11:44:01;100975.53;;;15.02;50.69
13952;BME280;39535;52.192;9.886;2022-09-17T11:46:34;100991.03;;;14.80;50.25
13952;BME280;39535;52.192;9.886;2022-09-17T11:49:09;101008.22;;;14.25;51.24
13952;BME280;39535;52.192;9.886;2022-09-17T11:51:42;100990.44;;;14.02;50.34
13952;BME280;39535;52.192;9.886;2022-09-17T11:54:18;100976.44;;;14.01;51.28
13952;BME280;39535;52.192;9.886;2022-09-17T11:56:50;100950.56;;;13.86;51.03
13952;BME280;39535;52.192;9.886;2022-09-17T11:59:22;100934.19;;;14.10;52.29
13952;BME280;39535;52.192;9.886;2022-09-17T12:01:54;100912.47;;;14.05;52.11
13952;BME280;39535;52.192;9.886;2022-09-17T12:04:31;100899.34;;;14.05;52.68
13952;BME280;39535;52.192;9.886;2022-09-17T12:07:10;100875.59;;;14.10;52.33
13952;BME280;39535;52.192;9.886;2022-09-17T12:09:41;100854.56;;;14.12;53.15
13952;BME280;39535;52.192;9.886;2022-09-17T12:12:13;100829.81;;;14.20;53.98
13952;BME280;39535;52.192;9.886;2022-09-17T12:14:46;100823.50;;;14.27;53.55
13952;BME280;39535;52.192;9.886;2022-09-17T12:17:19;100807.63;;;14.30;54.51
13952;BME280;39535;52.192;9.886;2022-09-17T12:19:50;100803.72;;;14.14;52.86
13952;BME280;39535;52.192;9.886;2022-09-17T12:22:23;100847.59;;;14.09;52.44
13952;BME280;39535;52.192;9.886;2022-09-17T12:24:51;100842.75;;;14.26;52.68
13952;BME280;39535;52.192;9.886;2022-09-17T12:27:26;100829.66;;;14.58;53.86
13952;BME280;39535;52.192;9.886;2022-09-17T12:30:04;100829.63;;;14.59;54.12
13952;BME280;39535;52.192;9.886;2022-09-17T12:33:02;100805.03;;;14.29;53.65
13952;BME280;39535;52.192;9.886;2022-09-17T12:36:02;100797.81;;;14.06;54.75
13952;BME280;39535;52.192;9.886;2022-09-17T12:41:45;100781.69;;;13.88;53.80
13952;BME280;39535;52.192;9.886;2022-09-17T12:44:31;100773.28;;;13.76;53.30
13952;BME280;39535;52.192;9.886;2022-09-17T12:47:18;100806.16;;;13.89;51.93
13952;BME280;39535;52.192;9.886;2022-09-17T12:50:06;100834.81;;;13.97;52.38
13952;BME280;39535;52.192;9.886;2022-09-17T12:52:52;100820.50;;;13.76;53.23
13952;BME280;39535;52.192;9.886;2022-09-17T12:55:38;100808.97;;;13.81;52.90
13952;BME280;39535;52.192;9.886;2022-09-17T12:58:22;100805.44;;;13.84;52.81
13952;BME280;39535;52.192;9.886;2022-09-17T13:00:58;100818.88;;;13.72;53.20
13952;BME280;39535;52.192;9.886;2022-09-17T13:03:28;100814.50;;;12.97;62.04
13952;BME280;39535;52.192;9.886;2022-09-17T13:09:36;99739.63;;;10.38;84.05
13952;BME280;39535;52.192;9.886;2022-09-17T13:12:19;99567.75;;;9.99;86.69
13952;BME280;39535;52.192;9.886;2022-09-17T13:17:57;99532.66;;;9.82;91.13
13952;BME280;39535;52.192;9.886;2022-09-17T13:20:30;99552.06;;;10.00;92.16
13952;BME280;39535;52.192;9.886;2022-09-17T13:22:58;99592.81;;;10.04;91.43
13952;BME280;39535;52.192;9.886;2022-09-17T13:25:26;99643.09;;;10.08;90.07
13952;BME280;39535;52.192;9.886;2022-09-17T13:28:04;99683.28;;;10.32;89.90
13952;BME280;39535;52.192;9.886;2022-09-17T13:30:53;99695.06;;;10.45;89.85